Time;durP1;ratioP1;P1;durP2;ratioP2;P2;SDS_P1;SDS_P2;PMS_P1;PMS_P2;Temp;Humidity;BMP_temperature;BMP_pressure;BME280_temperature;BME280_humidity;BME280_pressure;Samples;Min_cycle;Max_cycle;Signal;HPM_P1;HPM_P2
2021/09/14 00:01:03;;;;;;;13.87;10.30;;;;;;;;;;5035208;28;20915;-46
2021/09/14 00:03:29;;;;;;;11.37;10.17;;;;;;;;;;5035136;28;20396;-45
2021/09/14 00:05:55;;;;;;;30.90;10.17;;;;;;;;;;5035025;28;20454;-46
2021/09/14 00:08:21;;;;;;;13.33;11.10;;;;;;;;;;5035179;28;20417;-45
2021/09/14 00:10:47;;;;;;;34.13;12.10;;;;;;;;;;5035031;28;20883;-48
2021/09/14 00:13:13;;;;;;;12.63;7.37;;;;;;;;;;5034951;28;20486;-47
2021/09/14 00:15:39;;;;;;;17.23;11.70;;;;;;;;;;5034902;28;20447;-48
2021/09/14 00:18:05;;;;;;;11.80;10.10;;;;;;;;;;5034709;28;20488;-45
2021/09/14 00:20:31;;;;;;;13.20;10.40;;;;;;;;;;5034965;28;20436;-47
2021/09/14 00:22:57;;;;;;;12.93;10.47;;;;;;;;;;5034779;28;20827;-47
2021/09/14 00:25:23;;;;;;;19.73;10.10;;;;;;;;;;5034701;28;20424;-46
2021/09/14 00:27:50;;;;;;;11.80;10.00;;;;;;;;;;5034511;28;20424;-47
2021/09/14 00:30:16;;;;;;;11.93;10.70;;;;;;;;;;5034677;28;20431;-49
2021/09/14 00:32:41;;;;;;;11.53;10.50;;;;;;;;;;5034508;28;20418;-46
2021/09/14 00:35:08;;;;;;;11.57;10.33;;;;;;;;;;5034557;28;20408;-45
2021/09/14 00:37:34;;;;;;;13.70;10.90;;;;;;;;;;5034402;28;20379;-45
2021/09/14 00:40:00;;;;;;;14.37;11.53;;;;;;;;;;5034536;28;20499;-45
2021/09/14 00:42:26;;;;;;;13.47;11.20;;;;;;;;;;5034795;28;20379;-45
2021/09/14 00:44:52;;;;;;;15.93;11.67;;;;;;;;;;5034401;28;20404;-45
2021/09/14 00:47:18;;;;;;;16.73;12.20;;;;;;;;;;5034059;28;20480;-46
2021/09/14 00:49:44;;;;;;;14.73;11.13;;;;;;;;;;5034332;28;20496;-45
2021/09/14 00:52:10;;;;;;;16.73;11.60;;;;;;;;;;5034449;28;20456;-46
2021/09/14 00:54:37;;;;;;;19.63;11.83;;;;;;;;;;5033693;28;20880;-47
2021/09/14 00:57:03;;;;;;;12.27;10.97;;;;;;;;;;5033960;28;20491;-49
2021/09/14 00:59:30;;;;;;;13.40;12.00;;;;;;;;;;5034169;28;20383;-49
2021/09/14 01:01:56;;;;;;;15.43;12.30;;;;;;;;;;5033461;28;20405;-47
2021/09/14 01:04:22;;;;;;;15.37;11.57;;;;;;;;;;5033660;28;20440;-50
2021/09/14 01:06:48;;;;;;;14.03;11.77;;;;;;;;;;5033427;28;20459;-46
2021/09/14 01:09:15;;;;;;;14.53;12.30;;;;;;;;;;5033585;28;20491;-46
2021/09/14 01:11:41;;;;;;;12.17;10.97;;;;;;;;;;5033812;28;20458;-46
2021/09/14 01:14:08;;;;;;;18.10;13.97;;;;;;;;;;5033931;28;20409;-46
2021/09/14 01:16:34;;;;;;;14.03;12.50;;;;;;;;;;5033705;28;20452;-46
2021/09/14 01:19:01;;;;;;;21.50;12.70;;;;;;;;;;5033608;28;20966;-45
2021/09/14 01:21:28;;;;;;;14.63;12.47;;;;;;;;;;5033824;28;20854;-45
2021/09/14 01:23:54;;;;;;;15.50;13.23;;;;;;;;;;5033886;28;20406;-46
2021/09/14 01:26:20;;;;;;;17.60;13.50;;;;;;;;;;5033477;28;20518;-46
2021/09/14 01:28:46;;;;;;;15.13;12.63;;;;;;;;;;5033320;28;20915;-46
2021/09/14 01:31:12;;;;;;;15.27;12.30;;;;;;;;;;5033810;28;20484;-44
2021/09/14 01:33:38;;;;;;;17.63;13.17;;;;;;;;;;5033627;28;20915;-46
2021/09/14 01:36:04;;;;;;;19.73;13.33;;;;;;;;;;5033439;28;20402;-46
2021/09/14 01:38:30;;;;;;;17.80;14.03;;;;;;;;;;5033293;28;20406;-47
2021/09/14 01:40:56;;;;;;;17.63;13.67;;;;;;;;;;5033255;28;20498;-47
2021/09/14 01:43:22;;;;;;;14.10;12.77;;;;;;;;;;5033308;28;20408;-49
2021/09/14 01:45:49;;;;;;;13.90;12.50;;;;;;;;;;5033149;28;20513;-47
2021/09/14 01:48:14;;;;;;;15.77;12.50;;;;;;;;;;5033101;28;20374;-48
2021/09/14 01:50:41;;;;;;;17.37;12.93;;;;;;;;;;5033237;28;20411;-46
2021/09/14 01:53:07;;;;;;;16.10;13.77;;;;;;;;;;5033121;28;20403;-47
2021/09/14 01:55:33;;;;;;;13.60;12.13;;;;;;;;;;5032975;28;20415;-47
2021/09/14 01:57:59;;;;;;;20.70;13.33;;;;;;;;;;5032780;28;20491;-48
2021/09/14 02:00:34;;;;;;;18.03;13.30;;;;;;;;;;5033081;28;20378;-49
2021/09/14 02:38:36;;;;;;;16.43;13.73;;;;;;;;;;5032313;28;20423;-49
2021/09/14 02:59:37;;;;;;;18.13;14.70;;;;;;;;;;5032072;28;21233;-44
2021/09/14 03:02:04;;;;;;;15.70;13.07;;;;;;;;;;5031940;28;20765;-48
2021/09/14 03:04:30;;;;;;;14.63;13.20;;;;;;;;;;5031979;28;20404;-48
2021/09/14 03:06:56;;;;;;;14.63;13.13;;;;;;;;;;5031748;28;20446;-45
2021/09/14 03:09:22;;;;;;;17.27;14.20;;;;;;;;;;5031618;28;20415;-46
2021/09/14 03:11:48;;;;;;;20.10;14.33;;;;;;;;;;5031813;28;20395;-46
2021/09/14 03:14:14;;;;;;;20.67;14.47;;;;;;;;;;5031808;28;20408;-48
2021/09/14 03:16:40;;;;;;;16.40;13.90;;;;;;;;;;5031404;28;20468;-48
2021/09/14 03:19:06;;;;;;;17.30;13.90;;;;;;;;;;5031492;28;20411;-45
2021/09/14 03:21:33;;;;;;;17.73;15.17;;;;;;;;;;5031726;28;20502;-45
2021/09/14 03:23:59;;;;;;;15.60;13.97;;;;;;;;;;5031736;28;20405;-49
2021/09/14 03:26:25;;;;;;;19.23;13.87;;;;;;;;;;5031642;28;20477;-46
2021/09/14 03:28:51;;;;;;;16.20;14.47;;;;;;;;;;5031518;28;20409;-48
2021/09/14 03:31:17;;;;;;;18.23;15.17;;;;;;;;;;5031551;28;20404;-49
2021/09/14 03:33:47;;;;;;;21.23;13.93;;;;;;;;;;5031630;28;20400;-48
2021/09/14 03:36:17;;;;;;;18.90;14.57;;;;;;;;;;5031567;28;20430;-45
2021/09/14 03:38:44;;;;;;;22.57;15.93;;;;;;;;;;5031426;28;20375;-45
2021/09/14 03:41:10;;;;;;;17.40;15.10;;;;;;;;;;5031528;28;20433;-48
2021/09/14 03:43:36;;;;;;;18.00;14.60;;;;;;;;;;5031649;28;20587;-45
2021/09/14 03:46:01;;;;;;;20.83;14.93;;;;;;;;;;5031369;28;20497;-46
2021/09/14 03:48:28;;;;;;;17.50;14.67;;;;;;;;;;5013529;28;20422;-45
2021/09/14 03:50:54;;;;;;;17.00;14.80;;;;;;;;;;5031445;28;20408;-47
2021/09/14 03:53:20;;;;;;;18.07;14.77;;;;;;;;;;5031488;28;20951;-44
2021/09/14 03:55:46;;;;;;;20.23;14.97;;;;;;;;;;5031491;28;20926;-45
2021/09/14 03:58:12;;;;;;;18.10;15.90;;;;;;;;;;5031309;28;20419;-45
2021/09/14 04:00:38;;;;;;;21.87;15.70;;;;;;;;;;5031546;28;20898;-45
2021/09/14 04:03:10;;;;;;;16.00;14.40;;;;;;;;;;5031348;28;20815;-44
2021/09/14 04:10:41;;;;;;;19.13;14.10;;;;;;;;;;5031340;28;20392;-47
2021/09/14 04:13:08;;;;;;;17.50;15.57;;;;;;;;;;5031321;28;20462;-45
2021/09/14 04:15:34;;;;;;;18.50;13.97;;;;;;;;;;5039161;22;20482;-46
2021/09/14 04:18:00;;;;;;;21.03;15.23;;;;;;;;;;5030661;28;20396;-45
2021/09/14 04:20:26;;;;;;;16.70;14.90;;;;;;;;;;5031180;28;20391;-44
2021/09/14 04:22:52;;;;;;;18.60;14.40;;;;;;;;;;5031228;28;20898;-45
2021/09/14 04:25:18;;;;;;;18.80;16.33;;;;;;;;;;5031213;28;20491;-45
2021/09/14 04:27:44;;;;;;;18.90;14.53;;;;;;;;;;5030936;28;20544;-45
2021/09/14 04:30:10;;;;;;;16.90;14.30;;;;;;;;;;5034424;28;20405;-45
2021/09/14 04:32:37;;;;;;;22.10;15.50;;;;;;;;;;5034666;28;20404;-45
2021/09/14 04:35:03;;;;;;;17.63;15.83;;;;;;;;;;5034524;28;20400;-45
2021/09/14 04:37:29;;;;;;;16.30;14.60;;;;;;;;;;5034418;28;20407;-45
2021/09/14 04:39:55;;;;;;;19.37;16.30;;;;;;;;;;5034579;28;20419;-45
2021/09/14 04:42:21;;;;;;;17.93;14.90;;;;;;;;;;5034360;28;20438;-45
2021/09/14 04:44:47;;;;;;;16.23;14.53;;;;;;;;;;5034587;28;20414;-46
2021/09/14 04:47:13;;;;;;;16.50;14.37;;;;;;;;;;5034200;28;20957;-51
2021/09/14 04:49:39;;;;;;;23.70;16.57;;;;;;;;;;5034401;28;20521;-44
2021/09/14 04:52:06;;;;;;;20.50;16.30;;;;;;;;;;5034362;28;20828;-46
2021/09/14 04:54:36;;;;;;;19.60;15.57;;;;;;;;;;5034367;28;20403;-44
2021/09/14 04:57:02;;;;;;;17.00;15.00;;;;;;;;;;5034128;28;20430;-45
2021/09/14 04:59:28;;;;;;;17.97;15.83;;;;;;;;;;5034014;28;20438;-45
2021/09/14 05:01:54;;;;;;;21.93;16.50;;;;;;;;;;5034146;28;20436;-44
2021/09/14 05:04:20;;;;;;;17.70;15.83;;;;;;;;;;5033911;28;20409;-44
2021/09/14 05:06:46;;;;;;;20.07;17.00;;;;;;;;;;5033910;28;20815;-45
2021/09/14 05:09:12;;;;;;;21.50;16.80;;;;;;;;;;5033795;28;20407;-45
2021/09/14 05:11:38;;;;;;;18.27;15.77;;;;;;;;;;5033927;28;20430;-45
2021/09/14 05:14:04;;;;;;;18.87;15.10;;;;;;;;;;5034074;28;20396;-46
2021/09/14 05:16:30;;;;;;;22.87;16.40;;;;;;;;;;5033932;28;20442;-45
2021/09/14 05:18:57;;;;;;;17.73;14.80;;;;;;;;;;5033677;28;21011;-47
2021/09/14 05:21:24;;;;;;;21.53;16.00;;;;;;;;;;5033800;28;20407;-45
2021/09/14 05:23:50;;;;;;;24.87;16.80;;;;;;;;;;5033754;28;20403;-45
2021/09/14 05:26:16;;;;;;;21.17;16.17;;;;;;;;;;5033614;28;20987;-45
2021/09/14 05:28:43;;;;;;;24.40;18.23;;;;;;;;;;5033489;28;20469;-46
2021/09/14 05:31:09;;;;;;;19.60;16.00;;;;;;;;;;5033579;28;20406;-45
2021/09/14 05:33:37;;;;;;;19.40;16.47;;;;;;;;;;5033559;28;20399;-45
2021/09/14 05:36:04;;;;;;;21.87;16.50;;;;;;;;;;5033369;28;20422;-46
2021/09/14 05:38:30;;;;;;;19.20;17.20;;;;;;;;;;5033375;28;20462;-45
2021/09/14 05:40:57;;;;;;;24.20;15.90;;;;;;;;;;5033303;28;20403;-46
2021/09/14 05:43:24;;;;;;;18.27;16.37;;;;;;;;;;5033407;28;20408;-45
2021/09/14 05:45:50;;;;;;;18.70;15.10;;;;;;;;;;5033205;28;20511;-49
2021/09/14 05:48:16;;;;;;;20.27;16.73;;;;;;;;;;5033085;28;20413;-48
2021/09/14 05:50:42;;;;;;;24.00;17.33;;;;;;;;;;5033585;28;20402;-45
2021/09/14 05:53:08;;;;;;;23.00;17.83;;;;;;;;;;5033008;28;20425;-46
2021/09/14 05:55:38;;;;;;;19.30;16.77;;;;;;;;;;5033117;28;20431;-45
2021/09/14 05:58:04;;;;;;;20.50;15.43;;;;;;;;;;5032920;28;20414;-45
2021/09/14 06:00:31;;;;;;;21.97;16.60;;;;;;;;;;5033043;28;20428;-45
2021/09/14 06:02:57;;;;;;;29.27;16.87;;;;;;;;;;5033075;28;21036;-45
2021/09/14 06:05:22;;;;;;;20.40;16.27;;;;;;;;;;5032901;28;20431;-45
2021/09/14 06:07:48;;;;;;;23.03;16.50;;;;;;;;;;5032583;28;20466;-45
2021/09/14 06:10:14;;;;;;;19.63;16.30;;;;;;;;;;5032809;28;20451;-46
2021/09/14 06:12:41;;;;;;;20.60;16.10;;;;;;;;;;5032846;28;20415;-45
2021/09/14 06:15:07;;;;;;;19.20;17.03;;;;;;;;;;5032784;28;20900;-46
2021/09/14 06:17:33;;;;;;;20.57;16.70;;;;;;;;;;5032550;28;20958;-45
2021/09/14 06:19:59;;;;;;;18.33;14.00;;;;;;;;;;5032586;28;20779;-45
2021/09/14 06:22:25;;;;;;;21.17;16.80;;;;;;;;;;5032504;28;20443;-45
2021/09/14 06:24:51;;;;;;;24.20;18.30;;;;;;;;;;5032860;28;20778;-46
2021/09/14 06:27:17;;;;;;;21.07;16.43;;;;;;;;;;5032700;28;20498;-45
2021/09/14 06:29:43;;;;;;;22.47;16.33;;;;;;;;;;5032388;28;20428;-45
2021/09/14 06:32:09;;;;;;;21.20;15.27;;;;;;;;;;5032425;28;20409;-46
2021/09/14 06:34:36;;;;;;;20.10;15.70;;;;;;;;;;5032451;28;20416;-46
2021/09/14 06:37:02;;;;;;;22.37;16.00;;;;;;;;;;5032283;28;20429;-45
2021/09/14 06:39:28;;;;;;;19.80;15.20;;;;;;;;;;5032215;28;20379;-45
2021/09/14 06:41:54;;;;;;;21.20;15.17;;;;;;;;;;5032348;28;20375;-45
2021/09/14 06:44:20;;;;;;;19.83;13.60;;;;;;;;;;5032377;28;20388;-45
2021/09/14 06:46:46;;;;;;;19.27;14.50;;;;;;;;;;5032154;28;20507;-47
2021/09/14 06:49:12;;;;;;;16.90;13.77;;;;;;;;;;5031982;28;20408;-47
2021/09/14 06:51:38;;;;;;;16.07;13.23;;;;;;;;;;5032084;28;20386;-48
2021/09/14 06:54:04;;;;;;;11.50;10.40;;;;;;;;;;5032151;28;20839;-50
2021/09/14 06:56:30;;;;;;;15.07;12.17;;;;;;;;;;5031528;28;20403;-49
2021/09/14 06:58:56;;;;;;;15.40;11.10;;;;;;;;;;5031346;28;20454;-46
2021/09/14 07:01:22;;;;;;;11.53;10.10;;;;;;;;;;5031024;28;20415;-45
2021/09/14 07:03:48;;;;;;;12.57;9.57;;;;;;;;;;5032073;28;20474;-47
2021/09/14 07:06:15;;;;;;;13.33;10.30;;;;;;;;;;5031133;28;20446;-46
2021/09/14 07:08:41;;;;;;;11.03;9.80;;;;;;;;;;5032209;28;20476;-47
2021/09/14 07:11:07;;;;;;;11.50;9.50;;;;;;;;;;5031979;28;20451;-46
2021/09/14 07:13:33;;;;;;;11.80;9.63;;;;;;;;;;5031922;28;20444;-47
2021/09/14 07:15:59;;;;;;;12.53;9.00;;;;;;;;;;5031819;28;20445;-47
2021/09/14 07:18:25;;;;;;;10.57;9.47;;;;;;;;;;5031587;28;20425;-46
2021/09/14 07:20:51;;;;;;;11.40;9.43;;;;;;;;;;5031616;28;20449;-46
2021/09/14 07:23:19;;;;;;;9.50;8.60;;;;;;;;;;5031861;28;20413;-47
2021/09/14 07:25:45;;;;;;;9.33;8.50;;;;;;;;;;5031776;28;20509;-46
2021/09/14 07:28:12;;;;;;;9.20;8.03;;;;;;;;;;5031654;28;20497;-46
2021/09/14 07:30:38;;;;;;;15.23;8.60;;;;;;;;;;5031850;28;20532;-46
2021/09/14 07:33:04;;;;;;;10.60;8.50;;;;;;;;;;5030735;28;20402;-46
2021/09/14 07:35:31;;;;;;;11.07;8.80;;;;;;;;;;5031673;28;20450;-46
2021/09/14 07:37:57;;;;;;;10.20;9.10;;;;;;;;;;5031583;28;20407;-46
2021/09/14 07:40:24;;;;;;;11.50;10.40;;;;;;;;;;5031687;28;20410;-49
2021/09/14 07:42:50;;;;;;;9.50;8.70;;;;;;;;;;5031605;28;20774;-46
2021/09/14 07:45:16;;;;;;;14.20;9.90;;;;;;;;;;5031571;28;20404;-48
2021/09/14 07:47:42;;;;;;;11.57;10.37;;;;;;;;;;5031319;28;21014;-49
2021/09/14 07:50:08;;;;;;;11.83;10.50;;;;;;;;;;5031538;28;20405;-45
2021/09/14 07:52:34;;;;;;;15.93;10.27;;;;;;;;;;5031594;28;20435;-48
2021/09/14 07:55:00;;;;;;;15.30;10.73;;;;;;;;;;5031531;28;20440;-49
2021/09/14 07:57:26;;;;;;;11.63;10.30;;;;;;;;;;5031590;28;20969;-46
2021/09/14 07:59:52;;;;;;;9.87;8.83;;;;;;;;;;5031376;28;20436;-46
2021/09/14 08:02:18;;;;;;;13.47;9.37;;;;;;;;;;5031413;28;20507;-46
2021/09/14 08:04:44;;;;;;;13.97;9.50;;;;;;;;;;5034339;28;20493;-46
2021/09/14 08:07:10;;;;;;;9.63;8.70;;;;;;;;;;5035217;28;20987;-47
2021/09/14 08:09:36;;;;;;;13.40;9.07;;;;;;;;;;5035039;28;20936;-46
2021/09/14 08:12:03;;;;;;;14.43;9.53;;;;;;;;;;5035151;28;20436;-47
2021/09/14 08:14:30;;;;;;;11.97;9.80;;;;;;;;;;5035109;28;20398;-46
2021/09/14 08:16:56;;;;;;;11.00;9.43;;;;;;;;;;5034941;28;20446;-48
2021/09/14 08:19:22;;;;;;;10.53;9.40;;;;;;;;;;5034782;28;20413;-49
2021/09/14 08:21:48;;;;;;;10.30;9.40;;;;;;;;;;5017272;28;20940;-47
2021/09/14 08:24:14;;;;;;;9.40;8.43;;;;;;;;;;5035027;28;21085;-47
2021/09/14 08:26:40;;;;;;;11.50;9.00;;;;;;;;;;5034820;28;20503;-47
2021/09/14 08:29:06;;;;;;;15.40;8.60;;;;;;;;;;5034714;28;20925;-47
2021/09/14 08:31:32;;;;;;;9.13;7.70;;;;;;;;;;5034711;28;20402;-47
2021/09/14 08:33:58;;;;;;;9.47;8.57;;;;;;;;;;5034885;28;20877;-46
2021/09/14 08:36:25;;;;;;;8.80;7.90;;;;;;;;;;5034736;28;21159;-47
2021/09/14 08:38:51;;;;;;;12.80;7.53;;;;;;;;;;5034471;28;20398;-49
2021/09/14 08:41:18;;;;;;;8.50;7.77;;;;;;;;;;5034526;28;20489;-48
2021/09/14 08:43:45;;;;;;;7.73;7.10;;;;;;;;;;5034701;28;20481;-48
2021/09/14 08:46:12;;;;;;;10.70;8.20;;;;;;;;;;5034349;28;20445;-46
2021/09/14 08:48:38;;;;;;;12.47;7.83;;;;;;;;;;5034307;28;20402;-49
2021/09/14 08:51:05;;;;;;;10.97;7.53;;;;;;;;;;5034439;28;20398;-50
2021/09/14 08:53:34;;;;;;;10.20;7.50;;;;;;;;;;5034390;28;20525;-47
2021/09/14 08:55:59;;;;;;;7.80;7.10;;;;;;;;;;5034336;28;20454;-46
2021/09/14 08:58:25;;;;;;;10.30;7.50;;;;;;;;;;5034166;28;20449;-46
2021/09/14 09:00:51;;;;;;;7.37;6.67;;;;;;;;;;5034090;28;20417;-47
2021/09/14 09:03:28;;;;;;;7.67;6.90;;;;;;;;;;5034223;28;20414;-47
2021/09/14 09:05:54;;;;;;;13.40;7.33;;;;;;;;;;5034108;28;20785;-46
2021/09/14 09:08:21;;;;;;;7.40;6.10;;;;;;;;;;5033971;28;20884;-47
2021/09/14 09:11:05;;;;;;;7.83;6.43;;;;;;;;;;5033029;28;20904;-50
2021/09/14 09:13:50;;;;;;;11.10;6.53;;;;;;;;;;5034022;28;20480;-49
2021/09/14 09:16:23;;;;;;;8.07;7.27;;;;;;;;;;5033653;28;20937;-47
2021/09/14 09:18:53;;;;;;;7.50;6.57;;;;;;;;;;5033695;28;20403;-47
2021/09/14 09:21:19;;;;;;;6.70;6.13;;;;;;;;;;5033796;28;20406;-47
2021/09/14 09:23:54;;;;;;;8.10;6.57;;;;;;;;;;5033828;28;20410;-47
2021/09/14 09:26:30;;;;;;;6.70;5.97;;;;;;;;;;5033683;28;20437;-49
2021/09/14 09:29:00;;;;;;;6.83;5.73;;;;;;;;;;5033566;28;20888;-47
2021/09/14 09:31:26;;;;;;;7.37;4.90;;;;;;;;;;5033527;28;20430;-46
2021/09/14 09:34:07;;;;;;;10.60;5.77;;;;;;;;;;5033540;28;20485;-47
2021/09/14 09:36:36;;;;;;;6.23;5.73;;;;;;;;;;5033505;28;20422;-48
2021/09/14 09:39:03;;;;;;;6.20;5.60;;;;;;;;;;5033260;28;20459;-49
2021/09/14 09:41:34;;;;;;;6.43;5.80;;;;;;;;;;5033461;28;20430;-47
2021/09/14 09:44:04;;;;;;;5.93;5.53;;;;;;;;;;5033489;28;20395;-49
2021/09/14 09:46:30;;;;;;;6.40;5.80;;;;;;;;;;5033070;28;20449;-48
2021/09/14 09:48:57;;;;;;;11.10;5.90;;;;;;;;;;5033132;28;20458;-47
2021/09/14 09:51:23;;;;;;;9.83;5.87;;;;;;;;;;5033174;28;20402;-47
2021/09/14 09:53:51;;;;;;;8.70;5.67;;;;;;;;;;5033320;28;20434;-47
2021/09/14 09:56:17;;;;;;;6.00;5.30;;;;;;;;;;5033227;28;20493;-49
2021/09/14 09:58:44;;;;;;;5.80;5.23;;;;;;;;;;5033059;28;20954;-47
2021/09/14 10:01:15;;;;;;;5.00;4.60;;;;;;;;;;5032964;28;20481;-47
2021/09/14 10:03:57;;;;;;;5.60;5.07;;;;;;;;;;5032893;28;21128;-47
2021/09/14 10:06:28;;;;;;;5.97;4.90;;;;;;;;;;5032655;28;20457;-50
2021/09/14 10:08:55;;;;;;;5.40;5.00;;;;;;;;;;5031715;28;20497;-48
2021/09/14 10:11:29;;;;;;;5.53;5.00;;;;;;;;;;5032789;28;20402;-48
2021/09/14 10:14:09;;;;;;;8.37;5.67;;;;;;;;;;5032832;28;20487;-47
2021/09/14 10:16:37;;;;;;;10.03;5.80;;;;;;;;;;5033845;28;20442;-51
2021/09/14 10:19:07;;;;;;;6.43;5.10;;;;;;;;;;5052644;28;20420;-51
2021/09/14 10:21:33;;;;;;;8.63;7.83;;;;;;;;;;5052372;28;20408;-52
2021/09/14 10:23:59;;;;;;;5.87;5.27;;;;;;;;;;5052346;28;20401;-51
2021/09/14 10:26:32;;;;;;;15.27;11.77;;;;;;;;;;5051734;28;20499;-50
2021/09/14 10:28:58;;;;;;;13.40;11.80;;;;;;;;;;5050925;28;20496;-51
2021/09/14 10:31:25;;;;;;;5.20;4.70;;;;;;;;;;5051258;28;20509;-51
2021/09/14 10:34:04;;;;;;;4.83;4.33;;;;;;;;;;5052337;28;20546;-51
2021/09/14 10:36:31;;;;;;;8.60;5.03;;;;;;;;;;5052216;28;20508;-50
2021/09/14 10:38:58;;;;;;;7.90;6.40;;;;;;;;;;5051401;28;20424;-50
2021/09/14 10:41:34;;;;;;;4.93;4.43;;;;;;;;;;5051905;28;20405;-51
2021/09/14 10:44:01;;;;;;;6.10;5.60;;;;;;;;;;5052223;28;20428;-51
2021/09/14 10:46:30;;;;;;;8.43;4.33;;;;;;;;;;5052138;28;21077;-51
2021/09/14 10:48:57;;;;;;;4.90;4.20;;;;;;;;;;5051809;28;20411;-50
2021/09/14 10:51:23;;;;;;;4.40;4.10;;;;;;;;;;5051973;28;20488;-51
2021/09/14 10:53:55;;;;;;;4.10;3.83;;;;;;;;;;5052080;28;20479;-51
2021/09/14 10:56:21;;;;;;;7.23;5.90;;;;;;;;;;5052091;28;20422;-52
2021/09/14 10:58:47;;;;;;;4.50;4.10;;;;;;;;;;5051718;28;20474;-49
2021/09/14 11:01:21;;;;;;;3.60;3.30;;;;;;;;;;5051880;28;20498;-51
2021/09/14 11:03:50;;;;;;;4.93;4.10;;;;;;;;;;5045656;28;20424;-51
2021/09/14 11:06:16;;;;;;;4.43;4.03;;;;;;;;;;5031671;28;20453;-52
2021/09/14 11:08:45;;;;;;;4.10;3.80;;;;;;;;;;5031708;28;20515;-52
2021/09/14 11:11:15;;;;;;;4.30;3.90;;;;;;;;;;5031835;28;20406;-52
2021/09/14 11:13:41;;;;;;;5.07;4.53;;;;;;;;;;5031814;28;20407;-50
2021/09/14 11:16:07;;;;;;;5.30;4.07;;;;;;;;;;5031484;28;20520;-49
2021/09/14 11:18:34;;;;;;;4.70;4.40;;;;;;;;;;5031585;28;20464;-49
2021/09/14 11:21:06;;;;;;;6.37;4.03;;;;;;;;;;5031749;28;20243;-51
2021/09/14 11:23:32;;;;;;;9.63;4.70;;;;;;;;;;5031736;28;20878;-50
2021/09/14 11:25:58;;;;;;;4.33;4.03;;;;;;;;;;5031618;28;20905;-51
2021/09/14 11:28:24;;;;;;;10.77;4.37;;;;;;;;;;5031416;28;20409;-51
2021/09/14 11:30:54;;;;;;;5.03;4.37;;;;;;;;;;5031588;28;20399;-51
2021/09/14 11:33:20;;;;;;;4.37;4.00;;;;;;;;;;5031727;28;20402;-49
2021/09/14 11:35:46;;;;;;;5.13;4.73;;;;;;;;;;5031597;28;20522;-49
2021/09/14 11:38:12;;;;;;;4.67;3.40;;;;;;;;;;5033433;28;20429;-51
2021/09/14 11:40:46;;;;;;;4.10;3.70;;;;;;;;;;5035509;28;20448;-50
2021/09/14 11:43:16;;;;;;;7.27;4.57;;;;;;;;;;5035268;28;20409;-49
2021/09/14 11:45:42;;;;;;;4.17;3.77;;;;;;;;;;5035399;28;20422;-51
2021/09/14 11:48:15;;;;;;;10.07;4.77;;;;;;;;;;5035244;28;20425;-51
2021/09/14 11:50:41;;;;;;;4.77;4.37;;;;;;;;;;5035410;28;20943;-49
2021/09/14 11:53:08;;;;;;;5.30;4.30;;;;;;;;;;5035246;28;20555;-52
2021/09/14 11:55:34;;;;;;;4.40;4.00;;;;;;;;;;5035059;28;20430;-50
2021/09/14 11:58:01;;;;;;;4.37;4.07;;;;;;;;;;5035000;28;20892;-51
2021/09/14 12:00:36;;;;;;;5.43;4.93;;;;;;;;;;5035172;28;20540;-51
2021/09/14 12:03:02;;;;;;;9.47;5.30;;;;;;;;;;5035197;28;20401;-49
2021/09/14 12:05:28;;;;;;;5.67;5.27;;;;;;;;;;5035138;28;20433;-48
2021/09/14 12:07:56;;;;;;;4.70;4.40;;;;;;;;;;5034824;28;20449;-49
2021/09/14 12:10:22;;;;;;;5.23;4.27;;;;;;;;;;5034823;28;20777;-49
2021/09/14 12:12:55;;;;;;;4.70;4.30;;;;;;;;;;5034744;28;20398;-52
2021/09/14 12:15:22;;;;;;;6.23;4.97;;;;;;;;;;5034652;28;20497;-51
2021/09/14 12:17:48;;;;;;;5.30;4.20;;;;;;;;;;5034734;28;20760;-51
2021/09/14 12:20:15;;;;;;;4.03;3.50;;;;;;;;;;5033569;28;20406;-51
2021/09/14 12:22:41;;;;;;;6.53;5.77;;;;;;;;;;5034512;28;20417;-50
2021/09/14 12:25:07;;;;;;;5.03;4.63;;;;;;;;;;5034774;28;20410;-52
2021/09/14 12:27:33;;;;;;;4.50;4.10;;;;;;;;;;5034557;28;20511;-53
2021/09/14 12:29:59;;;;;;;5.00;4.07;;;;;;;;;;5034535;28;20790;-49
2021/09/14 12:32:26;;;;;;;4.63;4.33;;;;;;;;;;5034480;28;20398;-51
2021/09/14 12:34:52;;;;;;;4.50;4.20;;;;;;;;;;5034669;28;20396;-52
2021/09/14 12:37:18;;;;;;;4.27;3.97;;;;;;;;;;5034293;28;20804;-51
2021/09/14 12:39:44;;;;;;;4.30;3.90;;;;;;;;;;5034165;28;20403;-52
2021/09/14 12:42:10;;;;;;;4.37;4.07;;;;;;;;;;5034397;28;20453;-51
2021/09/14 12:44:36;;;;;;;4.53;4.13;;;;;;;;;;5034398;28;20398;-50
2021/09/14 12:47:02;;;;;;;3.90;3.60;;;;;;;;;;5034185;28;20461;-50
2021/09/14 12:49:28;;;;;;;4.23;3.90;;;;;;;;;;5033219;28;20254;-52
2021/09/14 12:51:54;;;;;;;4.13;3.83;;;;;;;;;;5034206;28;20426;-51
2021/09/14 12:54:20;;;;;;;4.37;4.00;;;;;;;;;;5034144;28;20473;-50
2021/09/14 12:56:46;;;;;;;3.60;3.30;;;;;;;;;;5034004;28;20472;-49
2021/09/14 12:59:12;;;;;;;3.77;3.47;;;;;;;;;;5033938;28;20414;-51
2021/09/14 13:01:38;;;;;;;4.40;4.00;;;;;;;;;;5034028;28;20402;-50
2021/09/14 13:04:04;;;;;;;7.37;3.20;;;;;;;;;;5032952;28;20409;-52
2021/09/14 13:06:30;;;;;;;3.87;3.57;;;;;;;;;;5033650;28;20515;-49
2021/09/14 13:08:56;;;;;;;5.83;3.63;;;;;;;;;;5033721;28;20418;-51
2021/09/14 13:11:22;;;;;;;3.73;3.30;;;;;;;;;;5016129;28;20417;-51
2021/09/14 13:16:33;;;;;;;3.40;3.10;;;;;;;;;;5033897;28;20480;-50
2021/09/14 13:18:59;;;;;;;4.40;3.43;;;;;;;;;;5033127;28;20627;-52
2021/09/14 13:21:25;;;;;;;3.53;3.17;;;;;;;;;;5032560;28;20401;-51
2021/09/14 13:23:51;;;;;;;3.20;3.00;;;;;;;;;;5033730;28;20413;-51
2021/09/14 13:26:18;;;;;;;3.23;3.03;;;;;;;;;;5033472;28;20458;-52
2021/09/14 13:28:44;;;;;;;3.70;3.10;;;;;;;;;;5033318;28;20449;-51
2021/09/14 13:31:10;;;;;;;3.10;2.90;;;;;;;;;;5033304;28;20427;-51
2021/09/14 13:33:36;;;;;;;3.20;2.97;;;;;;;;;;5033454;28;20890;-51
2021/09/14 13:36:03;;;;;;;4.43;3.70;;;;;;;;;;5033642;28;20786;-51
2021/09/14 13:38:30;;;;;;;4.70;3.10;;;;;;;;;;5033331;28;20398;-49
2021/09/14 13:41:00;;;;;;;3.70;3.40;;;;;;;;;;5033217;28;20407;-51
2021/09/14 13:46:14;;;;;;;3.20;3.00;;;;;;;;;;5033097;28;20492;-51
2021/09/14 13:48:50;;;;;;;3.27;3.03;;;;;;;;;;5033053;28;20399;-50
2021/09/14 13:51:18;;;;;;;3.83;3.27;;;;;;;;;;5033266;28;20432;-51
2021/09/14 13:53:45;;;;;;;3.60;3.00;;;;;;;;;;5033052;28;20485;-51
2021/09/14 13:56:17;;;;;;;4.00;3.60;;;;;;;;;;5033104;28;20505;-52
2021/09/14 13:58:43;;;;;;;3.47;3.27;;;;;;;;;;5032757;28;20489;-48
2021/09/14 14:01:09;;;;;;;8.23;3.47;;;;;;;;;;5032880;28;20921;-49
2021/09/14 14:03:35;;;;;;;3.63;3.43;;;;;;;;;;5032930;28;20536;-49
2021/09/14 14:06:01;;;;;;;3.60;3.40;;;;;;;;;;5032871;28;20426;-51
2021/09/14 14:08:27;;;;;;;3.57;3.27;;;;;;;;;;5032715;28;20406;-52
2021/09/14 14:10:53;;;;;;;3.27;3.07;;;;;;;;;;5032757;28;20492;-52
2021/09/14 14:13:19;;;;;;;5.23;3.57;;;;;;;;;;5032709;28;20656;-52
2021/09/14 14:15:45;;;;;;;3.83;3.20;;;;;;;;;;5032473;28;20434;-52
2021/09/14 14:18:12;;;;;;;3.30;3.10;;;;;;;;;;5032726;28;20913;-46
2021/09/14 14:20:38;;;;;;;4.13;3.53;;;;;;;;;;5032441;28;20421;-51
2021/09/14 14:23:04;;;;;;;3.83;3.63;;;;;;;;;;5032524;28;20460;-52
2021/09/14 14:25:31;;;;;;;3.23;3.03;;;;;;;;;;5032422;28;20421;-52
2021/09/14 14:27:57;;;;;;;3.90;3.70;;;;;;;;;;5032367;28;21109;-52
2021/09/14 14:30:23;;;;;;;4.20;3.90;;;;;;;;;;5032314;28;20403;-52
2021/09/14 14:32:48;;;;;;;3.60;3.40;;;;;;;;;;5032288;28;20398;-51
2021/09/14 14:35:14;;;;;;;3.43;3.13;;;;;;;;;;5032320;28;20489;-51
2021/09/14 14:37:40;;;;;;;4.47;3.53;;;;;;;;;;5032520;28;20406;-51
2021/09/14 14:40:07;;;;;;;3.50;3.30;;;;;;;;;;5031983;28;20403;-52
2021/09/14 14:42:33;;;;;;;3.93;3.73;;;;;;;;;;5032265;28;20467;-50
2021/09/14 14:44:59;;;;;;;4.50;3.80;;;;;;;;;;5032212;28;20493;-51
2021/09/14 14:47:25;;;;;;;4.40;3.60;;;;;;;;;;5032045;28;20541;-51
2021/09/14 14:49:51;;;;;;;3.77;3.13;;;;;;;;;;5031892;28;20888;-49
2021/09/14 14:52:17;;;;;;;3.90;3.60;;;;;;;;;;5032128;28;20414;-50
2021/09/14 14:54:42;;;;;;;3.70;3.40;;;;;;;;;;5032029;28;20483;-49
2021/09/14 14:57:08;;;;;;;5.00;3.80;;;;;;;;;;5032082;28;20444;-50
2021/09/14 14:59:34;;;;;;;4.53;3.70;;;;;;;;;;5031711;28;20529;-49
2021/09/14 15:02:00;;;;;;;3.50;3.30;;;;;;;;;;5031879;28;20414;-52
2021/09/14 15:04:26;;;;;;;3.80;3.53;;;;;;;;;;5031994;28;20406;-52
2021/09/14 15:06:52;;;;;;;4.00;3.70;;;;;;;;;;5031703;28;20949;-51
2021/09/14 15:09:20;;;;;;;3.70;3.40;;;;;;;;;;5031449;28;20402;-50
2021/09/14 15:11:46;;;;;;;3.93;3.53;;;;;;;;;;5031521;28;20400;-50
2021/09/14 15:14:12;;;;;;;6.57;3.80;;;;;;;;;;5031755;28;20821;-49
2021/09/14 15:16:38;;;;;;;5.77;3.83;;;;;;;;;;5031661;28;20469;-52
2021/09/14 15:19:05;;;;;;;4.30;3.90;;;;;;;;;;5031556;28;20493;-51
2021/09/14 15:21:31;;;;;;;8.10;4.07;;;;;;;;;;5031808;28;20407;-51
2021/09/14 15:23:57;;;;;;;3.80;3.50;;;;;;;;;;5031491;28;20410;-51
2021/09/14 15:26:23;;;;;;;4.50;4.07;;;;;;;;;;5031588;28;20457;-51
2021/09/14 15:28:49;;;;;;;3.87;3.57;;;;;;;;;;5031502;28;20406;-50
2021/09/14 15:31:15;;;;;;;3.87;3.57;;;;;;;;;;5031584;28;20810;-51
2021/09/14 15:33:41;;;;;;;7.63;6.50;;;;;;;;;;5031612;28;20399;-50